createdAt,value
2019-06-10T00:02:24.442Z,16.60
2019-06-10T00:04:56.088Z,16.80
2019-06-10T00:07:27.583Z,16.80
2019-06-10T00:10:00.828Z,16.80
2019-06-10T00:12:32.755Z,16.80
2019-06-10T00:15:04.931Z,16.70
2019-06-10T00:17:50.665Z,16.70
2019-06-10T00:20:11.178Z,16.60
2019-06-10T00:22:42.418Z,16.50
2019-06-10T00:25:13.775Z,16.50
2019-06-10T00:27:45.431Z,16.50
2019-06-10T00:30:15.947Z,16.60
2019-06-10T00:32:47.319Z,16.60
2019-06-10T00:35:18.086Z,16.70
2019-06-10T00:37:51.243Z,16.70
2019-06-10T00:40:22.266Z,16.70
2019-06-10T00:42:53.139Z,16.80
2019-06-10T00:45:24.357Z,16.80
2019-06-10T00:48:07.669Z,16.70
2019-06-10T00:50:30.857Z,16.80
2019-06-10T00:53:03.889Z,16.70
2019-06-10T00:55:36.399Z,16.40
2019-06-10T00:58:07.954Z,16.30
2019-06-10T02:01:08.441Z,15.70
2019-06-10T02:03:47.326Z,15.80
2019-06-10T02:06:22.139Z,15.70
2019-06-10T02:08:54.648Z,15.80
2019-06-10T02:11:25.598Z,15.70
2019-06-10T02:13:56.695Z,15.60
2019-06-10T02:16:27.537Z,15.60
2019-06-10T02:19:01.460Z,15.70
2019-06-10T02:21:31.270Z,15.70
2019-06-10T02:24:02.147Z,15.70
2019-06-10T02:26:33.280Z,15.60
2019-06-10T02:29:03.851Z,15.70
2019-06-10T02:31:37.468Z,15.70
2019-06-10T02:34:12.404Z,15.70
2019-06-10T02:36:44.444Z,15.60
2019-06-10T02:39:21.413Z,15.50
2019-06-10T02:41:47.026Z,15.60
2019-06-10T02:44:22.891Z,15.50
2019-06-10T02:46:54.182Z,15.50
2019-06-10T02:49:46.519Z,15.60
2019-06-10T02:51:56.979Z,15.60
2019-06-10T02:54:31.769Z,15.60
2019-06-10T02:57:04.320Z,15.60
2019-06-10T02:59:36.434Z,15.60
2019-06-10T03:02:08.090Z,15.70
2019-06-10T03:04:39.176Z,15.70
2019-06-10T03:07:13.594Z,15.60
2019-06-10T03:09:43.226Z,15.60
2019-06-10T03:12:14.115Z,15.60
2019-06-10T03:14:45.490Z,15.50
2019-06-10T03:17:18.456Z,15.60
2019-06-10T03:19:50.782Z,15.60
2019-06-10T03:22:22.952Z,15.60
2019-06-10T03:24:55.314Z,15.60
2019-06-10T03:27:27.818Z,15.40
2019-06-10T03:29:59.381Z,15.50
2019-06-10T03:32:40.066Z,15.60
2019-06-10T03:35:05.450Z,15.60
2019-06-10T03:37:36.130Z,15.50
2019-06-10T03:40:08.112Z,15.50
2019-06-10T03:42:39.307Z,15.50
2019-06-10T03:45:12.629Z,15.60
2019-06-10T03:47:44.047Z,15.60
2019-06-10T03:50:15.051Z,15.60
2019-06-10T03:52:45.862Z,15.60
2019-06-10T03:55:17.294Z,15.60
2019-06-10T03:57:48.146Z,15.60
2019-06-10T04:00:19.601Z,15.70
2019-06-10T04:02:50.514Z,15.70
2019-06-10T04:05:23.872Z,15.70
2019-06-10T04:07:54.163Z,15.70
2019-06-10T04:10:27.845Z,15.80
2019-06-10T04:12:58.471Z,15.80
2019-06-10T04:15:29.634Z,15.80
2019-06-10T04:18:03.941Z,15.80
2019-06-10T04:20:35.761Z,15.90
2019-06-10T04:23:07.353Z,15.90
2019-06-10T04:25:42.758Z,15.90
2019-06-10T04:28:14.172Z,15.80
2019-06-10T04:30:45.624Z,15.90
2019-06-10T04:33:16.601Z,15.80
2019-06-10T04:35:47.742Z,15.80
2019-06-10T04:38:18.891Z,15.70
2019-06-10T04:40:52.536Z,15.60
2019-06-10T04:43:24.916Z,15.60
2019-06-10T04:45:57.426Z,15.60
2019-06-10T04:48:29.364Z,15.70
2019-06-10T04:51:02.736Z,15.70
2019-06-10T04:53:34.451Z,15.70
2019-06-10T04:56:05.360Z,15.60
2019-06-10T04:58:36.291Z,15.50
2019-06-10T05:01:07.485Z,15.60
2019-06-10T05:03:39.648Z,15.60
2019-06-10T05:06:12.323Z,15.60
2019-06-10T05:08:43.823Z,15.70
2019-06-10T05:11:15.340Z,15.60
2019-06-10T05:13:46.451Z,15.70
2019-06-10T05:16:19.530Z,15.70
2019-06-10T05:18:54.038Z,15.70
2019-06-10T05:21:27.542Z,15.70
2019-06-10T05:23:57.088Z,15.80
2019-06-10T05:26:28.905Z,15.90
2019-06-10T05:29:03.027Z,16.00
2019-06-10T05:31:35.375Z,16.10
2019-06-10T05:34:06.027Z,16.20
2019-06-10T05:36:37.182Z,16.30
2019-06-10T05:39:08.237Z,16.40
2019-06-10T05:41:40.004Z,16.50
2019-06-10T05:44:13.185Z,16.60
2019-06-10T05:46:43.717Z,16.60
2019-06-10T05:49:15.299Z,16.70
2019-06-10T05:51:47.441Z,16.80
2019-06-10T05:54:18.639Z,16.90
2019-06-10T05:56:52.051Z,17.00
2019-06-10T05:59:24.659Z,17.00
2019-06-10T06:01:56.933Z,17.10
2019-06-10T06:04:28.089Z,17.20
2019-06-10T06:07:02.242Z,17.30
2019-06-10T06:09:35.234Z,17.30
2019-06-10T06:12:06.937Z,17.40
2019-06-10T06:14:37.961Z,17.50
2019-06-10T06:17:09.043Z,17.60
2019-06-10T06:19:43.156Z,17.70
2019-06-10T06:22:13.727Z,17.70
2019-06-10T06:24:44.654Z,17.80
2019-06-10T06:27:16.145Z,17.90
2019-06-10T06:29:48.968Z,18.00
2019-06-10T06:32:20.220Z,18.10
2019-06-10T06:34:52.744Z,18.30
2019-06-10T06:37:24.992Z,18.40
2019-06-10T06:39:56.340Z,18.70
2019-06-10T06:42:27.616Z,18.80
2019-06-10T06:44:59.167Z,19.00
2019-06-10T06:47:32.793Z,19.10
2019-06-10T06:50:03.208Z,19.20
2019-06-10T06:53:04.963Z,19.20
2019-06-10T06:55:08.328Z,19.00
2019-06-10T06:57:40.060Z,19.00
2019-06-10T07:00:37.349Z,19.20
2019-06-10T07:02:44.810Z,19.20
2019-06-10T07:05:16.065Z,19.30
2019-06-10T07:07:47.403Z,19.30
2019-06-10T07:10:22.704Z,19.40
2019-06-10T07:12:55.369Z,19.50
2019-06-10T07:15:38.912Z,19.80
2019-06-10T07:18:13.073Z,20.00
2019-06-10T07:20:45.795Z,20.20
2019-06-10T07:23:17.657Z,20.40
2019-06-10T07:25:48.595Z,20.70
2019-06-10T07:28:19.566Z,20.80
2019-06-10T07:30:52.780Z,21.00
2019-06-10T07:33:23.206Z,21.30
2019-06-10T07:35:56.617Z,21.80
2019-06-10T07:38:27.188Z,22.30
2019-06-10T07:40:59.432Z,22.40
2019-06-10T07:43:34.061Z,22.10
2019-06-10T07:46:03.608Z,22.40
2019-06-10T07:48:37.195Z,23.10
2019-06-10T07:51:09.144Z,23.30
2019-06-10T07:53:44.612Z,23.60
2019-06-10T07:56:14.178Z,23.60
2019-06-10T07:58:47.624Z,23.60
2019-06-10T08:01:22.645Z,23.60
2019-06-10T08:03:52.875Z,24.00
2019-06-10T08:06:24.069Z,24.20
2019-06-10T08:08:55.336Z,24.00
2019-06-10T08:11:26.959Z,24.10
2019-06-10T08:13:58.474Z,23.90
2019-06-10T08:16:29.721Z,23.80
2019-06-10T08:19:22.104Z,23.90
2019-06-10T08:21:34.546Z,24.20
2019-06-10T08:24:05.529Z,23.80
2019-06-10T08:26:37.285Z,23.30
2019-06-10T08:29:08.712Z,23.60
2019-06-10T08:31:40.988Z,23.60
2019-06-10T08:34:13.409Z,24.20
2019-06-10T08:36:49.069Z,24.40
2019-06-10T08:39:29.642Z,24.70
2019-06-10T08:42:02.981Z,24.80
2019-06-10T08:44:33.370Z,25.60
2019-06-10T08:47:04.876Z,25.80
2019-06-10T08:49:37.078Z,25.50
2019-06-10T08:52:08.837Z,25.60
2019-06-10T08:54:41.201Z,25.40
2019-06-10T08:57:12.816Z,25.50
2019-06-10T08:59:49.367Z,26.10
2019-06-10T09:02:28.820Z,25.90
2019-06-10T09:05:03.450Z,25.80
2019-06-10T09:07:33.460Z,25.40
2019-06-10T09:10:04.766Z,25.50
2019-06-10T09:12:36.763Z,25.60
2019-06-10T09:15:08.231Z,25.70
2019-06-10T09:17:40.176Z,25.40
2019-06-10T09:20:13.177Z,25.80
2019-06-10T09:22:47.252Z,25.60
2019-06-10T09:25:18.735Z,25.50
2019-06-10T09:27:52.476Z,25.60
2019-06-10T09:30:23.315Z,25.70
2019-06-10T09:32:56.478Z,25.40
2019-06-10T09:35:28.117Z,25.00
2019-06-10T09:38:03.529Z,25.10
2019-06-10T09:41:00.356Z,24.80
2019-06-10T09:43:25.548Z,24.80
2019-06-10T09:45:57.004Z,25.00
2019-06-10T09:48:27.934Z,24.80
2019-06-10T09:50:59.450Z,24.90
2019-06-10T09:53:41.256Z,24.50
2019-06-10T09:56:04.289Z,24.20
2019-06-10T09:58:35.978Z,24.10
2019-06-10T10:01:08.038Z,24.90
2019-06-10T10:03:38.903Z,25.60
2019-06-10T10:06:15.423Z,25.40
2019-06-10T10:08:46.127Z,25.80
2019-06-10T10:11:17.727Z,25.90
2019-06-10T10:13:49.909Z,26.40
2019-06-10T10:16:22.630Z,27.10
2019-06-10T10:19:00.273Z,27.20
2019-06-10T10:21:27.908Z,27.10
2019-06-10T10:24:06.845Z,27.30
2019-06-10T10:26:31.795Z,26.90
2019-06-10T10:29:03.197Z,26.70
2019-06-10T10:31:34.663Z,26.80
2019-06-10T10:34:06.107Z,26.40
2019-06-10T10:36:37.523Z,25.90
2019-06-10T10:39:09.634Z,26.00
2019-06-10T10:41:43.196Z,26.10
2019-06-10T10:44:14.846Z,26.00
2019-06-10T10:46:47.448Z,26.00
2019-06-10T10:49:19.208Z,26.10
2019-06-10T10:52:17.603Z,25.80
2019-06-10T10:54:49.398Z,25.70
2019-06-10T10:57:23.130Z,25.50
2019-06-10T10:59:56.197Z,25.60
2019-06-10T11:02:27.935Z,25.40
2019-06-10T11:04:59.191Z,25.40
2019-06-10T11:07:33.350Z,25.80
2019-06-10T11:10:04.485Z,25.60
2019-06-10T11:12:36.214Z,25.40
2019-06-10T11:15:07.996Z,25.70
2019-06-10T11:17:42.547Z,26.00
2019-06-10T11:20:13.623Z,26.00
2019-06-10T11:22:45.796Z,26.10
2019-06-10T11:25:16.869Z,27.00
2019-06-10T11:27:48.529Z,27.70
2019-06-10T11:30:19.847Z,28.10
2019-06-10T11:32:53.551Z,28.40
2019-06-10T11:35:24.103Z,28.20
2019-06-10T11:37:56.997Z,28.00
2019-06-10T11:40:28.848Z,28.00
2019-06-10T11:42:59.917Z,27.90
2019-06-10T11:45:32.853Z,28.40
2019-06-10T11:48:03.746Z,28.70
2019-06-10T11:50:34.626Z,28.90
2019-06-10T11:53:06.239Z,29.60
2019-06-10T11:55:38.781Z,29.10
2019-06-10T11:58:09.725Z,29.30
2019-06-10T12:03:13.131Z,29.80
2019-06-10T12:05:44.075Z,30.50
2019-06-10T12:08:15.796Z,30.40
2019-06-10T12:10:48.983Z,30.30
2019-06-10T12:13:22.618Z,29.80
2019-06-10T12:18:29.059Z,29.50
2019-06-10T12:21:03.862Z,28.70
2019-06-10T12:23:33.815Z,29.10
2019-06-10T12:26:07.066Z,29.40
2019-06-10T12:28:38.696Z,29.60
2019-06-10T12:31:13.044Z,29.90
2019-06-10T12:33:43.727Z,30.50
2019-06-10T12:36:15.112Z,30.40
2019-06-10T12:38:47.078Z,30.00
2019-06-10T12:41:18.266Z,30.30
2019-06-10T12:43:49.051Z,30.20
2019-06-10T12:46:22.630Z,30.10
2019-06-10T12:48:56.616Z,29.90
2019-06-10T12:51:26.698Z,30.10
2019-06-10T12:53:59.371Z,29.70
2019-06-10T12:56:32.758Z,29.50
2019-06-10T12:59:09.321Z,29.00
2019-06-10T13:01:38.022Z,29.30
2019-06-10T13:04:09.590Z,29.00
2019-06-10T13:06:42.035Z,28.70
2019-06-10T13:09:13.077Z,27.80
2019-06-10T13:11:44.532Z,27.70
2019-06-10T13:14:18.266Z,28.20
2019-06-10T13:16:49.079Z,28.20
2019-06-10T13:19:23.172Z,28.20
2019-06-10T13:21:55.175Z,28.00
2019-06-10T13:24:27.999Z,27.80
2019-06-10T13:26:58.910Z,27.50
2019-06-10T13:29:33.104Z,27.80
2019-06-10T13:32:06.216Z,27.30
2019-06-10T13:34:37.339Z,27.00
2019-06-10T13:37:08.738Z,26.90
2019-06-10T13:39:43.036Z,26.80
2019-06-10T13:42:15.043Z,26.80
2019-06-10T13:44:46.418Z,26.90
2019-06-10T13:47:19.587Z,26.90
2019-06-10T13:49:53.106Z,27.00
2019-06-10T13:52:23.797Z,26.50
2019-06-10T13:55:07.866Z,26.10
2019-06-10T13:57:42.657Z,25.80
2019-06-10T14:00:14.842Z,25.40
2019-06-10T14:02:46.245Z,25.10
2019-06-10T14:05:18.394Z,25.00
2019-06-10T14:07:49.707Z,25.20
2019-06-10T14:10:22.698Z,25.50
2019-06-10T14:12:53.615Z,25.50
2019-06-10T14:15:26.907Z,25.30
2019-06-10T14:17:58.724Z,25.10
2019-06-10T14:20:32.360Z,25.10
2019-06-10T14:23:04.118Z,24.90
2019-06-10T14:25:35.111Z,24.70
2019-06-10T14:28:09.045Z,24.10
2019-06-10T14:30:39.284Z,24.20
2019-06-10T14:33:14.235Z,24.20
2019-06-10T14:35:43.922Z,24.20
2019-06-10T14:38:15.867Z,24.00
2019-06-10T14:40:47.970Z,23.60
2019-06-10T14:43:19.465Z,23.30
2019-06-10T14:45:53.159Z,22.90
2019-06-10T14:48:25.291Z,22.90
2019-06-10T14:50:56.544Z,23.30
2019-06-10T14:53:28.320Z,23.10
2019-06-10T14:55:59.840Z,22.90
2019-06-10T14:58:30.783Z,22.70
2019-06-10T15:01:04.756Z,22.60
2019-06-10T15:03:35.350Z,22.70
2019-06-10T15:06:07.318Z,22.60
2019-06-10T15:08:38.357Z,22.40
2019-06-10T15:11:09.690Z,22.20
2019-06-10T15:13:43.537Z,22.00
2019-06-10T15:16:16.384Z,22.00
2019-06-10T15:18:47.747Z,22.00
2019-06-10T15:21:19.820Z,22.10
2019-06-10T15:23:52.368Z,22.20
2019-06-10T15:26:23.869Z,22.30
2019-06-10T15:28:55.439Z,22.30
2019-06-10T15:31:27.262Z,22.50
2019-06-10T15:33:58.439Z,22.60
2019-06-10T15:36:29.708Z,22.60
2019-06-10T15:39:04.260Z,22.40
2019-06-10T15:41:36.460Z,22.40
2019-06-10T15:44:07.031Z,22.40
2019-06-10T15:46:42.851Z,22.20
2019-06-10T15:49:16.374Z,22.00
2019-06-10T15:51:47.081Z,21.90
2019-06-10T15:54:20.461Z,21.90
2019-06-10T15:56:56.173Z,21.90
2019-06-10T15:59:24.947Z,21.90
2019-06-10T16:01:55.902Z,22.00
2019-06-10T16:04:29.706Z,22.10
2019-06-10T16:07:02.378Z,22.20
2019-06-10T16:09:33.069Z,22.30
2019-06-10T16:12:04.415Z,22.50
2019-06-10T16:14:36.479Z,22.70
2019-06-10T16:17:07.272Z,22.80
2019-06-10T16:19:38.871Z,22.80
2019-06-10T16:22:12.373Z,22.90
2019-06-10T16:24:43.139Z,22.80
2019-06-10T16:27:15.811Z,22.70
2019-06-10T16:29:47.107Z,22.60
2019-06-10T16:32:33.005Z,22.60
2019-06-10T16:35:04.132Z,22.40
2019-06-10T16:37:37.242Z,22.40
2019-06-10T16:40:12.134Z,22.50
2019-06-10T16:42:43.150Z,22.60
2019-06-10T16:45:15.817Z,22.50
2019-06-10T16:47:47.216Z,22.60
2019-06-10T16:50:19.452Z,22.70
2019-06-10T16:52:53.396Z,22.80
2019-06-10T16:55:25.384Z,22.60
2019-06-10T16:57:59.637Z,22.60
2019-06-10T17:00:31.518Z,22.60
2019-06-10T17:06:02.557Z,22.70
2019-06-10T17:08:34.415Z,22.70
2019-06-10T17:11:05.263Z,22.60
2019-06-10T17:13:36.493Z,22.60
2019-06-10T17:16:08.042Z,22.60
2019-06-10T17:18:39.777Z,22.40
2019-06-10T17:21:13.235Z,22.50
2019-06-10T17:23:43.680Z,22.50
2019-06-10T17:26:14.252Z,22.40
2019-06-10T17:28:45.150Z,22.50
2019-06-10T17:31:16.650Z,22.50
2019-06-10T17:33:47.951Z,22.60
2019-06-10T17:36:19.971Z,22.60
2019-06-10T17:38:52.346Z,22.60
2019-06-10T17:41:26.180Z,22.60
2019-06-10T17:43:57.176Z,22.70
2019-06-10T17:46:29.479Z,22.70
2019-06-10T17:49:02.622Z,22.60
2019-06-10T17:51:35.680Z,22.60
2019-06-10T17:54:07.015Z,22.70
2019-06-10T17:56:38.472Z,22.70
2019-06-10T17:59:09.768Z,22.60
2019-06-10T18:01:41.107Z,22.60
2019-06-10T18:04:12.973Z,22.50
2019-06-10T18:06:44.451Z,22.40
2019-06-10T18:09:15.588Z,22.20
2019-06-10T18:11:46.095Z,22.20
2019-06-10T18:14:17.079Z,22.20
2019-06-10T18:16:47.975Z,22.20
2019-06-10T18:19:18.835Z,22.10
2019-06-10T18:21:52.294Z,21.80
2019-06-10T18:24:27.265Z,21.90
2019-06-10T18:26:57.097Z,21.80
2019-06-10T18:29:32.097Z,21.70
2019-06-10T18:32:03.478Z,21.40
2019-06-10T18:34:37.816Z,21.40
2019-06-10T18:37:08.139Z,21.30
2019-06-10T18:39:40.009Z,21.30
2019-06-10T18:42:12.647Z,21.20
2019-06-10T18:44:44.378Z,21.20
2019-06-10T18:47:15.588Z,20.90
2019-06-10T18:49:47.394Z,20.90
2019-06-10T18:52:19.272Z,20.80
2019-06-10T18:54:52.842Z,20.70
2019-06-10T18:57:24.808Z,20.60
2019-06-10T18:59:55.730Z,20.50
2019-06-10T19:02:28.294Z,20.40
2019-06-10T19:05:02.839Z,20.30
2019-06-10T19:07:36.342Z,20.30
2019-06-10T19:10:07.539Z,20.20
2019-06-10T19:12:39.747Z,20.30
2019-06-10T19:15:12.064Z,20.30
2019-06-10T19:17:44.469Z,20.10
2019-06-10T19:20:16.793Z,20.10
2019-06-10T19:22:48.022Z,20.20
2019-06-10T19:25:19.770Z,20.00
2019-06-10T19:27:52.973Z,19.70
2019-06-10T19:30:24.974Z,19.70
2019-06-10T19:32:56.437Z,19.70
2019-06-10T19:35:27.812Z,19.80
2019-06-10T19:38:02.039Z,19.80
2019-06-10T19:40:35.091Z,19.70
2019-06-10T19:43:07.013Z,19.70
2019-06-10T19:45:38.596Z,19.70
2019-06-10T19:48:09.400Z,19.70
2019-06-10T19:50:47.608Z,19.70
2019-06-10T19:53:13.941Z,19.70
2019-06-10T19:55:46.592Z,19.80
2019-06-10T19:58:17.864Z,19.80
2019-06-10T20:00:51.265Z,19.80
2019-06-10T20:03:22.335Z,19.80
2019-06-10T20:05:54.159Z,19.70
2019-06-10T20:08:25.924Z,19.60
2019-06-10T20:10:57.051Z,19.40
2019-06-10T20:13:28.058Z,19.60
2019-06-10T20:15:59.049Z,19.60
2019-06-10T20:18:30.290Z,19.50
2019-06-10T20:21:02.692Z,19.60
2019-06-10T20:23:35.411Z,19.40
2019-06-10T20:26:06.292Z,19.30
2019-06-10T20:28:38.618Z,19.30
2019-06-10T20:31:09.901Z,19.20
2019-06-10T20:33:43.182Z,19.20
2019-06-10T20:36:21.906Z,19.20
2019-06-10T20:38:48.802Z,19.20
2019-06-10T20:41:20.871Z,19.10
2019-06-10T20:43:55.343Z,19.10
2019-06-10T20:46:25.349Z,18.90
2019-06-10T20:48:56.811Z,18.90
2019-06-10T20:51:27.719Z,18.80
2019-06-10T20:53:58.728Z,18.70
2019-06-10T20:56:30.407Z,18.50
2019-06-10T20:59:02.926Z,18.40
2019-06-10T21:01:34.354Z,18.40
2019-06-10T21:04:06.633Z,18.40
2019-06-10T21:06:39.197Z,18.20
2019-06-10T21:09:13.157Z,18.10
2019-06-10T21:11:47.011Z,18.00
2019-06-10T21:14:16.982Z,17.90
2019-06-10T21:16:48.368Z,17.80
2019-06-10T21:19:23.082Z,17.70
2019-06-10T21:21:54.882Z,17.70
2019-06-10T21:24:26.865Z,17.80
2019-06-10T21:26:57.959Z,17.80
2019-06-10T21:29:32.254Z,17.80
2019-06-10T21:32:03.762Z,17.80
2019-06-10T21:34:35.587Z,17.90
2019-06-10T21:37:07.000Z,17.80
2019-06-10T21:39:38.695Z,17.70
2019-06-10T21:42:09.783Z,17.70
2019-06-10T21:44:41.684Z,17.50
2019-06-10T21:47:13.050Z,17.40
2019-06-10T21:49:45.758Z,17.20
2019-06-10T21:52:17.043Z,17.20
2019-06-10T21:54:48.633Z,17.20
2019-06-10T21:57:21.983Z,17.20
2019-06-10T21:59:55.394Z,17.20
2019-06-10T22:02:26.636Z,17.10
2019-06-10T22:04:57.956Z,17.10
2019-06-10T22:07:29.685Z,16.90
2019-06-10T22:10:02.494Z,16.90
2019-06-10T22:12:33.760Z,16.90
2019-06-10T22:15:04.801Z,16.90
2019-06-10T22:17:36.600Z,16.80
2019-06-10T22:20:09.318Z,16.90
2019-06-10T22:22:42.912Z,17.00
2019-06-10T22:25:14.177Z,17.00
2019-06-10T22:27:45.771Z,16.90
2019-06-10T22:30:17.807Z,16.80
2019-06-10T22:32:49.440Z,16.90
2019-06-10T22:35:22.944Z,17.00
2019-06-10T22:37:55.471Z,16.90
2019-06-10T22:40:26.755Z,16.90
2019-06-10T22:42:58.096Z,16.90
2019-06-10T22:45:29.467Z,16.80
2019-06-10T22:48:02.773Z,16.90
2019-06-10T22:50:33.452Z,16.80
2019-06-10T22:53:04.332Z,16.80
2019-06-10T22:55:35.863Z,16.80
2019-06-10T22:58:07.186Z,16.80
2019-06-10T23:00:43.677Z,16.80
2019-06-10T23:03:16.310Z,16.80
2019-06-10T23:05:48.148Z,16.80
2019-06-10T23:08:19.343Z,16.90
2019-06-10T23:10:52.974Z,16.90
2019-06-10T23:13:23.769Z,16.90
2019-06-10T23:15:58.021Z,16.90
2019-06-10T23:18:28.784Z,16.90
2019-06-10T23:21:00.870Z,16.90
2019-06-10T23:23:32.708Z,16.90
2019-06-10T23:26:03.990Z,16.80
2019-06-10T23:28:34.943Z,16.80
2019-06-10T23:31:05.984Z,16.70
2019-06-10T23:33:37.671Z,16.50
2019-06-10T23:36:09.271Z,16.50
2019-06-10T23:38:43.062Z,16.60
2019-06-10T23:41:13.340Z,16.60
2019-06-10T23:43:44.386Z,16.60
2019-06-10T23:46:15.853Z,16.60
2019-06-10T23:48:47.110Z,16.60
2019-06-10T23:51:18.943Z,16.50
2019-06-10T23:53:53.827Z,16.60
2019-06-10T23:56:23.820Z,16.60
2019-06-10T23:58:55.963Z,16.70
